Tiempo atmosférico en la estación meteorológica de Benamejí, Córdoba (465 m.)



Fecha
DESCASC
Temp. máxima en grados centígrados (hora)
DESCASC
Temp. mínima en grados centígrados (hora)
DESCASC
Temp. media en grados centígrados
DESCASC
Racha de viento máxima en m/sg (hora)
DESCASC
Velocidad máxima media en intervalos de 10 minutos(hora)
DESCASC
Precipitaciones diarias en mm
DESCASC
Precipitaciones de 00:00 a 06:00 en mm
DESCASC
Precipitaciones de 06:00 a 12:00 en mm
DESCASC
Precipitaciones de 12:00 a 18:00 en mm
DESCASC
Precipitaciones de 18:00 a 24:00 en mm
DESCASC
23-06-2019 32.3 (17:00) 17.6 (06:00) 24.9 9.44 (18:10) 6.11 (20:10) 0 0 0 0 0
22-06-2019 31.8 (17:30) 16.5 (07:00) 24.1 10.56 (15:40) 6.39 (15:50) 0 0 0 0 0
21-06-2019 29.5 (18:00) 15.9 (06:50) 22.7 9.72 (18:50) 4.72 (19:00) 0 0 0 0 0
20-06-2019 27.1 (16:50) 15.1 (00:00) 21.1 10.28 (15:50) 5.28 (16:50) 0 0 0 0 0
19-06-2019 28.9 (18:30) 15.3 (00:00) 22.1 7.78 (22:50) 5 (22:50) 0 0 0 0 0
18-06-2019 28.3 (16:40) 15 (00:00) 21.6 9.17 (18:20) 5.28 (19:20) 0 0 0 0 0
17-06-2019 30.7 (18:20) 13.9 (00:00) 22.3 11.11 (18:30) 7.22 (18:10) 0 0 0 0 0
16-06-2019 29.2 (16:00) 15.2 (00:00) 22.2 11.94 (16:10) 7.78 (20:00) 0 0 0 0 0
15-06-2019 27.7 (18:10) 11.6 (00:00) 19.7 7.78 (14:50) 4.44 (18:10) 0 0 0 0 0
14-06-2019 23.6 (16:10) 15.2 (00:00) 19.4 10.83 (16:30) 6.39 (19:00) 0 0 0 0 0
13-06-2019 27 (17:30) 13.8 (00:00) 20.4 11.11 (15:20) 7.22 (21:50) 0 0 0 0 0
12-06-2019 26.1 (16:10) 13.7 (00:00) 19.9 12.5 (16:10) 7.5 (12:20) 0 0 0 0 0
11-06-2019 27 (19:20) 14 (00:00) 20.5 10.28 (19:30) 5.83 (22:20) 0 0 0 0 0
10-06-2019 26.5 (18:00) 14.4 (00:00) 20.4 9.72 (15:10) 6.39 (21:30) 0 0 0 0 0
09-06-2019 26.7 (17:50) 16.1 (00:00) 21.4 11.39 (21:50) 6.94 (21:50) 0 0 0 0 0
08-06-2019 27.8 (14:20) 13 (00:00) 20.4 13.89 (18:20) 10 (18:20) 0 0 0 0 0
07-06-2019 25.3 (18:30) 12.6 (00:00) 18.9 7.78 (18:00) 4.17 (19:10) 0 0 0 0 0
06-06-2019 27.4 (16:40) 12.5 (00:00) 19.9 11.39 (16:40) 7.5 (19:30) 0 0 0 0 0
05-06-2019 23.2 (17:20) 13.5 (00:00) 18.4 10 (16:20) 6.39 (04:20) 0 0 0 0 0
04-06-2019 31 (16:30) 16 (00:00) 23.5 11.67 (18:10) 7.5 (18:10) 0 0 0 0 0
03-06-2019 33.7 (17:30) 16.8 (00:00) 25.3 9.72 (15:30) 6.39 (21:50) 0 0 0 0 0
02-06-2019 32.1 (16:50) 15.7 (00:00) 23.9 10.56 (21:50) 7.5 (21:50) 0 0 0 0 0
01-06-2019 30 (16:20) 14.9 (00:00) 22.4 10.83 (18:10) 7.5 (17:40) 0 0 0 0 0
31-05-2019 29.9 (16:30) 16.3 (00:00) 23.1 14.72 (19:30) 9.44 (19:30) 0 0 0 0 0
30-05-2019 27.4 (15:10) 15.9 (00:00) 21.6 12.5 (20:30) 9.17 (20:40) 0 0 0 0 0
29-05-2019 29.9 (17:10) 16.6 (00:00) 23.3 10.28 (15:10) 6.39 (21:50) 0 0 0 0 0
28-05-2019 32.9 (17:10) 18.6 (00:00) 25.8 8.89 (17:30) 4.44 (15:50) 0 0 0 0 0

Gráficas

Temp. máximas Temp. mínimas Temp. medias Precipitaciones Rachas de viento máximas Velocidades máximas media en intervalos de 10 minutos

Datos horarios

Fecha y hora oficial Temperatura (ºC) Velocidad del viento (km/h) Dirección del viento Racha (km/h) Dirección de racha Precipitación (mm) Presión (hPa) Tendencia (hPa) Humedad (%)
2019-06-26 23:00:00 25.9 13 Oeste 23 Oeste 0 -- -- 40
2019-06-26 22:00:00 27.5 14 Oeste 25 Oeste 0 -- -- 38
2019-06-26 21:00:00 29.4 12 Noroeste 21 Noroeste 0 -- -- 33
2019-06-26 20:00:00 31 14 Noroeste 23 Noroeste 0 -- -- 29
2019-06-26 19:00:00 31.7 11 Noroeste 27 Noroeste 0 -- -- 26
2019-06-26 18:00:00 32.4 15 Oeste 26 Noroeste 0 -- -- 26
2019-06-26 17:00:00 32.1 10 Noroeste 25 Oeste 0 -- -- 25
2019-06-26 16:00:00 31.9 12 Oeste 33 Oeste 0 -- -- 24
2019-06-26 15:00:00 31.2 10 Noroeste 26 Sudoeste 0 -- -- 25
2019-06-26 14:00:00 29.7 7 Oeste 21 Sudoeste 0 -- -- 29
2019-06-26 13:00:00 27.9 9 Sudoeste 18 Oeste 0 -- -- 33
2019-06-26 12:00:00 25.8 5 Norte 15 Oeste 0 -- -- 40
2019-06-26 11:00:00 24.2 4 Noroeste 12 Oeste 0 -- -- 45
2019-06-26 10:00:00 22.5 4 Norte 9 Noroeste 0 -- -- 52
2019-06-26 09:00:00 20.7 4 Norte 9 Este 0 -- -- 59
2019-06-26 08:00:00 19 6 Nordeste 9 Nordeste 0 -- -- 66
2019-06-26 07:00:00 18.1 4 Nordeste 9 Norte 0 -- -- 67
2019-06-26 06:00:00 18.5 5 Norte 13 Norte 0 -- -- 62
2019-06-26 05:00:00 19.1 6 Norte 12 Norte 0 -- -- 56
2019-06-26 04:00:00 20.3 4 Nordeste 8 Noroeste 0 -- -- 50
2019-06-26 03:00:00 21.1 6 Norte 8 Norte 0 -- -- 48
2019-06-26 02:00:00 21.8 6 Nordeste 9 Norte 0 -- -- 45
2019-06-26 01:00:00 22.9 7 Norte 10 Noroeste 0 -- -- 41
2019-06-26 00:00:00 24.2 6 Oeste 15 Oeste 0 -- -- 37
2019-06-25 23:00:00 25.4 11 Oeste 25 Sudoeste 0 -- -- 33
2019-06-25 22:00:00 27.6 14 Oeste 26 Oeste 0 -- -- 30
2019-06-25 21:00:00 31.2 15 Oeste 29 Oeste 0 -- -- 27
2019-06-25 20:00:00 33.4 10 Oeste 27 Sudoeste 0 -- -- 21
2019-06-25 19:00:00 33.6 18 Sudoeste 28 Sudoeste 0 -- -- 19
2019-06-25 18:00:00 34.5 18 Sudoeste 29 Sudoeste 0 -- -- 17
2019-06-25 17:00:00 34.6 15 Sudoeste 32 Sudoeste 0 -- -- 17
2019-06-25 16:00:00 33.1 10 Noroeste 21 Noroeste 0 -- -- 21
2019-06-25 15:00:00 31.4 9 Noroeste 19 Sudoeste 0 -- -- 24
2019-06-25 14:00:00 30.4 12 Noroeste 20 Noroeste 0 -- -- 28
2019-06-25 13:00:00 28.9 9 Oeste 16 Oeste 0 -- -- 29
2019-06-25 12:00:00 26.7 4 Oeste 14 Oeste 0 -- -- 37
2019-06-25 11:00:00 24.8 5 Noroeste 14 Nordeste 0 -- -- 44
2019-06-25 10:00:00 22.9 5 Norte 11 Norte 0 -- -- 51
2019-06-25 09:00:00 21.3 4 Nordeste 8 Nordeste 0 -- -- 58
2019-06-25 08:00:00 19 4 Este 7 Este 0 -- -- 68
2019-06-25 07:00:00 18.6 3 Este 6 Nordeste 0 -- -- 70
2019-06-25 06:00:00 18.4 4 Este 9 Nordeste 0 -- -- 72
2019-06-25 05:00:00 18.5 7 Nordeste 10 Nordeste 0 -- -- 72
2019-06-25 04:00:00 18.9 6 Nordeste 10 Nordeste 0 -- -- 68
2019-06-25 03:00:00 19.9 6 Norte 12 Norte 0 -- -- 59
2019-06-25 02:00:00 21 4 Norte 9 Norte 0 -- -- 56
2019-06-25 01:00:00 21.9 6 Norte 8 Norte 0 -- -- 53
2019-06-25 00:00:00 22.9 3 Oeste 9 Noroeste 0 -- -- 50
2019-06-24 23:00:00 23.7 5 Noroeste 17 Noroeste 0 -- -- 46
2019-06-24 22:00:00 25 12 Noroeste 26 Noroeste 0 -- -- 37
2019-06-24 21:00:00 26.7 16 Noroeste 31 Oeste 0 -- -- 32
2019-06-24 20:00:00 28.5 17 Noroeste 30 Noroeste 0 -- -- 32
2019-06-24 19:00:00 30.5 19 Noroeste 36 Noroeste 0 -- -- 23
2019-06-24 18:00:00 31.3 18 Noroeste 30 Oeste 0 -- -- 20
2019-06-24 17:00:00 31.6 11 Oeste 25 Noroeste 0 -- -- 19
2019-06-24 16:00:00 31.1 8 Oeste 24 Noroeste 0 -- -- 20
2019-06-24 15:00:00 29.9 13 Oeste 27 Noroeste 0 -- -- 22
2019-06-24 14:00:00 28.7 13 Noroeste 23 Noroeste 0 -- -- 27
2019-06-24 13:00:00 28.6 10 Oeste 21 Noroeste 0 -- -- 26
2019-06-24 12:00:00 26.4 6 Oeste 16 Oeste 0 -- -- 32
2019-06-24 11:00:00 24.8 5 Noroeste 12 Oeste 0 -- -- 37
2019-06-24 10:00:00 23.2 3 Noroeste 8 Oeste 0 -- -- 41
2019-06-24 09:00:00 21.8 2 Este 5 Este 0 -- -- 47
2019-06-24 08:00:00 19.6 3 Norte 6 Nordeste 0 -- -- 55
2019-06-24 07:00:00 19 4 Este 6 Nordeste 0 -- -- 55
2019-06-24 06:00:00 19.3 3 Este 6 Este 0 -- -- 55
2019-06-24 05:00:00 19.5 3 Noroeste 8 Noroeste 0 -- -- 54
2019-06-24 04:00:00 20.2 3 Oeste 6 Noroeste 0 -- -- 47
2019-06-24 03:00:00 21.1 2 Sudoeste 8 Sudoeste 0 -- -- 45
2019-06-24 02:00:00 21.6 3 Sudoeste 5 Sudoeste 0 -- -- 42
2019-06-24 01:00:00 22.2 5 Sudoeste 9 Sudoeste 0 -- -- 40
2019-06-24 00:00:00 23.1 5 Sudoeste 18 Sudoeste 0 -- -- 37
2019-06-23 23:00:00 24.2 15 Sudoeste 24 Sudoeste 0 -- -- 34
2019-06-23 22:00:00 25.4 15 Sudoeste 28 Sur 0 -- -- 30
2019-06-23 21:00:00 28.1 19 Sur 30 Sur 0 -- -- 24
2019-06-23 20:00:00 30.6 21 Sur 30 Sudoeste 0 -- -- 15
2019-06-23 19:00:00 30.8 19 Sudoeste 34 Sur 0 -- -- 18
2019-06-23 18:00:00 32.2 14 Sudoeste 31 Sudoeste 0 -- -- 16
2019-06-23 17:00:00 32.3 16 Oeste 31 Sudoeste 0 -- -- 19
2019-06-23 16:00:00 32 14 Sudoeste 28 Oeste 0 -- -- 22
2019-06-23 15:00:00 31.1 14 Oeste 29 Oeste 0 -- -- 24
2019-06-23 14:00:00 30.4 12 Noroeste 23 Oeste 0 -- -- 24
2019-06-23 13:00:00 28.6 6 Noroeste 20 Oeste 0 -- -- 26
2019-06-23 12:00:00 27.4 12 Oeste 21 Oeste 0 -- -- 29
2019-06-23 11:00:00 26.2 6 Nordeste 13 Nordeste 0 -- -- 35
2019-06-23 10:00:00 23.5 7 Nordeste 13 Nordeste 0 -- -- 43
2019-06-23 09:00:00 20.8 6 Nordeste 12 Nordeste 0 -- -- 52
2019-06-23 08:00:00 18.8 3 Nordeste 8 Este 0 -- -- 58
2019-06-23 07:00:00 17.7 5 Este 8 Nordeste 0 -- -- 61
2019-06-23 06:00:00 17.6 4 Nordeste 6 Nordeste 0 -- -- 61
2019-06-23 05:00:00 18.4 3 Noroeste 10 Sudeste 0 -- -- 57
2019-06-23 04:00:00 19.2 5 Sudeste 9 Nordeste 0 -- -- 56
2019-06-23 03:00:00 19.6 5 Este 8 Este 0 -- -- 56
2019-06-23 02:00:00 20.2 3 Norte 8 Sur 0 -- -- 54
2019-06-23 01:00:00 20.7 8 Sudoeste 13 Oeste 0 -- -- 53
2019-06-23 00:00:00 21.8 8 Sudoeste 19 Sur 0 -- -- 46
2019-06-22 23:00:00 23.1 18 Sur 26 Sur 0 -- -- 39
2019-06-22 22:00:00 24.7 16 Sudoeste 29 Sudoeste 0 -- -- 33
2019-06-22 21:00:00 27.4 18 Sudoeste 33 Sudoeste 0 -- -- 28
2019-06-22 20:00:00 29.5 22 Sudoeste 30 Sur 0 -- -- 24
2019-06-22 19:00:00 31 18 Sur 28 Sudoeste 0 -- -- 17
2019-06-22 18:00:00 31.4 19 Sudoeste 33 Sudoeste 0 -- -- 18
2019-06-22 17:00:00 31.4 16 Sudoeste 33 Sudoeste 0 -- -- 19
2019-06-22 16:00:00 30.8 21 Sudoeste 38 Sudoeste 0 -- -- 22
2019-06-22 15:00:00 30.8 16 Sur 28 Sur 0 -- -- 22
2019-06-22 14:00:00 30.1 12 Sur 28 Sur 0 -- -- 20
2019-06-22 13:00:00 28.8 15 Sur 29 Sur 0 -- -- 25
2019-06-22 12:00:00 27.9 15 Sur 26 Sur 0 -- -- 25
2019-06-22 11:00:00 25.8 12 Sur 24 Sur 0 -- -- 31
2019-06-22 10:00:00 23.8 11 Sur 18 Sur 0 -- -- 34
2019-06-22 09:00:00 21.2 4 Sudeste 21 Sur 0 -- -- 37
2019-06-22 08:00:00 17.5 14 Sur 21 Sur 0 -- -- 45
2019-06-22 07:00:00 16.5 11 Sur 15 Sur 0 -- -- 38
2019-06-22 06:00:00 18 6 Sudeste 11 Sudeste 0 -- -- 33
2019-06-22 05:00:00 18.6 4 Sudeste 6 Sudeste 0 -- -- 32
2019-06-22 04:00:00 20.1 6 Sudeste 9 Este 0 -- -- 35
2019-06-22 03:00:00 20.4 9 Este 13 Este 0 -- -- 34
2019-06-22 02:00:00 20.6 7 Este 12 Este 0 -- -- 33
2019-06-22 01:00:00 21.1 8 Nordeste 9 Nordeste 0 -- -- 28
2019-06-22 00:00:00 22.2 5 Oeste 10 Oeste 0 -- -- 23
2019-06-21 23:00:00 22.8 6 Sudoeste 9 Sudoeste 0 -- -- 22
2019-06-21 22:00:00 24.6 8 Sudoeste 16 Noroeste 0 -- -- 19
2019-06-21 21:00:00 27.4 12 Noroeste 22 Noroeste 0 -- -- 15
2019-06-21 20:00:00 28.9 11 Oeste 24 Noroeste 0 -- -- 13
2019-06-21 19:00:00 29.2 17 Noroeste 35 Noroeste 0 -- -- 14
2019-06-21 18:00:00 29.5 9 Oeste 30 Norte 0 -- -- 14
2019-06-21 17:00:00 28.6 15 Norte 27 Noroeste 0 -- -- 16
2019-06-21 16:00:00 27.8 15 Noroeste 27 Noroeste 0 -- -- 19
2019-06-21 15:00:00 27.7 12 Oeste 28 Oeste 0 -- -- 22
2019-06-21 14:00:00 25.9 10 Noroeste 21 Noroeste 0 -- -- 28
2019-06-21 13:00:00 24.7 10 Noroeste 20 Noroeste 0 -- -- 31
2019-06-21 12:00:00 23.1 9 Noroeste 16 Noroeste 0 -- -- 36
2019-06-21 11:00:00 21.5 4 Noroeste 10 Noroeste 0 -- -- 42
2019-06-21 10:00:00 19.6 6 Oeste 13 Noroeste 0 -- -- 48
2019-06-21 09:00:00 18.9 3 Norte 6 Noroeste 0 -- -- 49
2019-06-21 08:00:00 17.5 4 Nordeste 6 Nordeste 0 -- -- 54
2019-06-21 07:00:00 15.9 4 Este 9 Este 0 -- -- 58
2019-06-21 06:00:00 16 5 Este 7 Este 0 -- -- 58
2019-06-21 05:00:00 16.5 3 Este 4 Este 0 -- -- 57
2019-06-21 04:00:00 17.1 3 Este 8 Este 0 -- -- 55
2019-06-21 03:00:00 17.2 3 Este 5 Nordeste 0 -- -- 55
2019-06-21 02:00:00 18.1 4 Nordeste 8 Este 0 -- -- 53
2019-06-21 01:00:00 18.6 3 Noroeste 12 Oeste 0 -- -- 51
2019-06-21 00:00:00 19.2 10 Oeste 15 Oeste 0 -- -- 49
2019-06-20 23:00:00 20.7 11 Oeste 19 Oeste 0 -- -- 43
2019-06-20 22:00:00 22.4 7 Oeste 27 Oeste 0 -- -- 37
2019-06-20 21:00:00 24.6 14 Oeste 26 Oeste 0 -- -- 29
2019-06-20 20:00:00 25.5 15 Noroeste 32 Noroeste 0 -- -- 28
2019-06-20 19:00:00 26.6 15 Noroeste 33 Oeste 0 -- -- 26
2019-06-20 18:00:00 27.1 15 Oeste 32 Oeste 0 -- -- 24
2019-06-20 17:00:00 27 17 Oeste 35 Noroeste 0 -- -- 26
2019-06-20 16:00:00 26.7 19 Oeste 37 Oeste 0 -- -- 28
2019-06-20 15:00:00 26.3 13 Oeste 31 Oeste 0 -- -- 33
2019-06-20 14:00:00 25.2 15 Noroeste 30 Noroeste 0 -- -- 38
2019-06-20 13:00:00 24.2 11 Oeste 24 Oeste 0 -- -- 42
2019-06-20 12:00:00 22.6 12 Noroeste 19 Oeste 0 -- -- 47
2019-06-20 11:00:00 21 6 Sudoeste 13 Oeste 0 -- -- 53
2019-06-20 10:00:00 19.9 3 Este 12 Noroeste 0 -- -- 56
2019-06-20 09:00:00 18.1 5 Noroeste 8 Noroeste 0 -- -- 62
2019-06-20 08:00:00 16.7 0 Calma 5 Sudoeste 0 -- -- 68
2019-06-20 07:00:00 15.2 2 Sur 5 Sur 0 -- -- 72
2019-06-20 06:00:00 15.8 3 Sudeste 11 Este 0 -- -- 65
2019-06-20 05:00:00 16.2 9 Este 12 Este 0 -- -- 65
2019-06-20 04:00:00 16.4 8 Este 10 Este 0 -- -- 65
2019-06-20 03:00:00 16.9 4 Sudeste 5 Este 0 -- -- 65
2019-06-20 02:00:00 17.4 5 Norte 14 Norte 0 -- -- 64
2019-06-20 01:00:00 18.4 9 Norte 15 Norte 0 -- -- 61
2019-06-20 00:00:00 20.1 5 Norte 24 Oeste 0 -- -- 52
2019-06-19 23:00:00 21.9 16 Oeste 28 Oeste 0 -- -- 46
2019-06-19 22:00:00 24.3 14 Oeste 23 Oeste 0 -- -- 34
2019-06-19 21:00:00 26.8 12 Noroeste 22 Noroeste 0 -- -- 26
2019-06-19 20:00:00 28.3 10 Noroeste 25 Noroeste 0 -- -- 22
2019-06-19 19:00:00 28.4 11 Noroeste 24 Oeste 0 -- -- 23
2019-06-19 18:00:00 28.4 11 Oeste 27 Noroeste 0 -- -- 23
2019-06-19 17:00:00 27.9 14 Noroeste 26 Noroeste 0 -- -- 25
2019-06-19 16:00:00 26.6 5 Norte 22 Noroeste 0 -- -- 26
2019-06-19 15:00:00 25.6 9 Oeste 22 Norte 0 -- -- 32
2019-06-19 14:00:00 24.1 8 Noroeste 21 Noroeste 0 -- -- 37
2019-06-19 13:00:00 22.4 7 Oeste 22 Noroeste 0 -- -- 44
2019-06-19 12:00:00 19.7 4 Oeste 13 Norte 0 -- -- 54
2019-06-19 11:00:00 18 5 Noroeste 13 Oeste 0 -- -- 64
2019-06-19 10:00:00 17.1 7 Noroeste 12 Noroeste 0 -- -- 69
2019-06-19 09:00:00 16.6 5 Noroeste 10 Noroeste 0 -- -- 74
2019-06-19 08:00:00 16.1 5 Noroeste 11 Noroeste 0 -- -- 78
2019-06-19 07:00:00 15.5 4 Noroeste 12 Noroeste 0 -- -- 83
2019-06-19 06:00:00 15.4 6 Norte 9 Norte 0 -- -- 77
2019-06-19 05:00:00 15.7 4 Nordeste 7 Nordeste 0 -- -- 77
2019-06-19 04:00:00 15.9 4 Norte 6 Noroeste 0 -- -- 76
2019-06-19 03:00:00 16.4 5 Oeste 9 Sudoeste 0 -- -- 72
2019-06-19 02:00:00 17 3 Sudoeste 6 Sudoeste 0 -- -- 67
2019-06-19 01:00:00 17.9 3 Sudoeste 8 Oeste 0 -- -- 60
2019-06-19 00:00:00 19.1 5 Oeste 19 Oeste 0 -- -- 56
2019-06-18 23:00:00 20.1 11 Noroeste 22 Noroeste 0 -- -- 52
2019-06-18 22:00:00 21.7 15 Noroeste 25 Oeste 0 -- -- 43
2019-06-18 21:00:00 24.4 17 Noroeste 29 Noroeste 0 -- -- 33
2019-06-18 20:00:00 26.1 18 Noroeste 30 Oeste 0 -- -- 27
2019-06-18 19:00:00 27.6 19 Noroeste 33 Noroeste 0 -- -- 21
2019-06-18 18:00:00 28 17 Noroeste 32 Norte 0 -- -- 19
2019-06-18 17:00:00 28 15 Noroeste 28 Norte 0 -- -- 23
2019-06-18 16:00:00 27.3 13 Noroeste 28 Noroeste 0 -- -- 26
2019-06-18 15:00:00 26.4 13 Noroeste 25 Noroeste 0 -- -- 29
2019-06-18 14:00:00 24.5 13 Noroeste 26 Noroeste 0 -- -- 34
2019-06-18 13:00:00 23.3 10 Noroeste 20 Noroeste 0 -- -- 35
2019-06-18 12:00:00 21.8 12 Noroeste 22 Noroeste 0 -- -- 40
2019-06-18 11:00:00 20.5 5 Noroeste 13 Noroeste 0 -- -- 40
2019-06-18 10:00:00 18.9 8 Noroeste 14 Noroeste 0 -- -- 43
2019-06-18 09:00:00 17.4 6 Noroeste 9 Noroeste 0 -- -- 48
2019-06-18 08:00:00 17 3 Norte 8 Nordeste 0 -- -- 52
2019-06-18 07:00:00 15 6 Norte 8 Norte 0 -- -- 63
2019-06-18 06:00:00 15.6 0 Calma 9 Sur 0 -- -- 59
2019-06-18 05:00:00 16.4 2 Nordeste 11 Nordeste 0 -- -- 55
2019-06-18 04:00:00 16.9 6 Nordeste 9 Noroeste 0 -- -- 54
2019-06-18 03:00:00 18.2 7 Noroeste 9 Norte 0 -- -- 49
2019-06-18 02:00:00 19.5 5 Nordeste 8 Nordeste 0 -- -- 45
2019-06-18 01:00:00 20.3 6 Nordeste 9 Oeste 0 -- -- 24
2019-06-18 00:00:00 21 6 Noroeste 13 Noroeste 0 -- -- 23
2019-06-17 23:00:00 22.2 9 Oeste 14 Sudoeste 0 -- -- 16
2019-06-17 22:00:00 24.4 11 Sudoeste 24 Sudoeste 0 -- -- 8
2019-06-17 21:00:00 27.9 17 Sur 31 Sudoeste 0 -- -- 12
2019-06-17 20:00:00 29.2 21 Sur 36 Sur 0 -- -- 10
2019-06-17 19:00:00 30.2 22 Sur 40 Sur 0 -- -- 9
2019-06-17 18:00:00 30.5 26 Sur 40 Sur 0 -- -- 9
2019-06-17 17:00:00 30.5 22 Sur 38 Sur 0 -- -- 11
2019-06-17 16:00:00 30.4 15 Sur 34 Sur 0 -- -- 13
2019-06-17 15:00:00 29.8 15 Sur 30 Sur 0 -- -- 14
2019-06-17 14:00:00 29.2 11 Sur 24 Sur 0 -- -- 14
2019-06-17 13:00:00 27.7 13 Sur 22 Sur 0 -- -- 12
2019-06-17 12:00:00 25.7 9 Sudoeste 18 Sudoeste 0 -- -- 17
2019-06-17 11:00:00 23.1 4 Oeste 9 Sudoeste 0 -- -- 24
2019-06-17 10:00:00 20 5 Nordeste 13 Nordeste 0 -- -- 31
2019-06-17 09:00:00 17.4 9 Nordeste 14 Nordeste 0 -- -- 39
2019-06-17 08:00:00 15.5 6 Este 11 Este 0 -- -- 42
2019-06-17 07:00:00 14.3 4 Nordeste 9 Norte 0 -- -- 44
2019-06-17 06:00:00 14.5 6 Norte 8 Norte 0 -- -- 39
2019-06-17 05:00:00 16 4 Nordeste 7 Nordeste 0 -- -- 36
2019-06-17 04:00:00 16.4 6 Nordeste 8 Nordeste 0 -- -- 35
2019-06-17 03:00:00 17.4 6 Nordeste 9 Nordeste 0 -- -- 33
2019-06-17 02:00:00 17.6 0 Calma 4 Sur 0 -- -- 32
2019-06-17 01:00:00 18 3 Sudeste 9 Sudoeste 0 -- -- 31
2019-06-17 00:00:00 18.6 5 Oeste 24 Sudoeste 0 -- -- 29
2019-06-16 23:00:00 19.6 15 Sudoeste 21 Sudoeste 0 -- -- 28
2019-06-16 22:00:00 22 19 Sudoeste 32 Sur 0 -- -- 25
2019-06-16 21:00:00 24.8 22 Sudoeste 35 Sur 0 -- -- 14
2019-06-16 20:00:00 26.3 28 Sur 39 Sudoeste 0 -- -- 13
2019-06-16 19:00:00 27.8 25 Sudoeste 37 Sudoeste 0 -- -- 12
2019-06-16 18:00:00 27.2 25 Sur 41 Sur 0 -- -- 13
2019-06-16 17:00:00 28.7 26 Sur 43 Sur 0 -- -- 10
2019-06-16 16:00:00 29.2 19 Sur 36 Sur 0 -- -- 10
2019-06-16 15:00:00 27.6 22 Sur 33 Sur 0 -- -- 13
2019-06-16 14:00:00 27.9 20 Sudoeste 33 Sur 0 -- -- 15
2019-06-16 13:00:00 26 19 Sur 32 Sudoeste 0 -- -- 16
2019-06-16 12:00:00 25.7 4 Oeste 19 Este 0 -- -- 16
2019-06-16 11:00:00 24.1 3 Noroeste 8 Noroeste 0 -- -- 19
2019-06-16 10:00:00 20.7 3 Sur 9 Oeste 0 -- -- 29
2019-06-16 09:00:00 18.3 4 Sudeste 12 Este 0 -- -- 32
2019-06-16 08:00:00 15.7 4 Este 11 Sudeste 0 -- -- 34
2019-06-16 07:00:00 15.2 3 Sudeste 9 Este 0 -- -- 37
2019-06-16 06:00:00 16.3 7 Nordeste 9 Este 0 -- -- 34
2019-06-16 05:00:00 17.5 4 Este 6 Este 0 -- -- 35
2019-06-16 04:00:00 17.8 5 Este 9 Este 0 -- -- 34
2019-06-16 03:00:00 18.3 0 Calma 9 Nordeste 0 -- -- 33
2019-06-16 02:00:00 18.6 7 Norte 14 Norte 0 -- -- 25
2019-06-16 01:00:00 20.7 6 Nordeste 8 Nordeste 0 -- -- 19
2019-06-16 00:00:00 22.5 5 Este 9 Este 0 -- -- 16
2019-06-15 23:00:00 22.6 4 Noroeste 8 Noroeste 0 -- -- 17
2019-06-15 22:00:00 23.1 6 Noroeste 14 Noroeste 0 -- -- 16
2019-06-15 21:00:00 25.8 10 Noroeste 19 Noroeste 0 -- -- 13
2019-06-15 20:00:00 26.8 12 Noroeste 24 Oeste 0 -- -- 13
2019-06-15 19:00:00 27.5 10 Noroeste 24 Oeste 0 -- -- 11
2019-06-15 18:00:00 27.6 13 Noroeste 26 Oeste 0 -- -- 13
2019-06-15 17:00:00 27 13 Noroeste 26 Noroeste 0 -- -- 13
2019-06-15 16:00:00 26.2 10 Noroeste 24 Noroeste 0 -- -- 15
2019-06-15 15:00:00 25.2 9 Oeste 28 Noroeste 0 -- -- 18
2019-06-15 14:00:00 23.9 8 Oeste 23 Oeste 0 -- -- 20
2019-06-15 13:00:00 22.4 9 Oeste 24 Norte 0 -- -- 24
2019-06-15 12:00:00 20.9 7 Noroeste 19 Noroeste 0 -- -- 30
2019-06-15 11:00:00 18.9 5 Norte 17 Noroeste 0 -- -- 37
2019-06-15 10:00:00 17.1 4 Norte 13 Noroeste 0 -- -- 45
2019-06-15 09:00:00 15.2 4 Norte 8 Norte 0 -- -- 51
2019-06-15 08:00:00 13.8 3 Nordeste 6 Nordeste 0 -- -- 54
2019-06-15 07:00:00 11.6 5 Nordeste 8 Norte 0 -- -- 59
2019-06-15 06:00:00 12.3 4 Nordeste 6 Nordeste 0 -- -- 54
2019-06-15 05:00:00 12.5 4 Nordeste 10 Este 0 -- -- 53
2019-06-15 04:00:00 12.7 8 Este 10 Este 0 -- -- 53
2019-06-15 03:00:00 13.2 2 Este 8 Norte 0 -- -- 53
2019-06-15 02:00:00 13.6 5 Norte 10 Noroeste 0 -- -- 52
2019-06-15 01:00:00 14.6 4 Oeste 10 Noroeste 0 -- -- 48
2019-06-15 00:00:00 16.1 7 Noroeste 15 Noroeste 0 -- -- 43
2019-06-14 23:00:00 17.1 5 Noroeste 20 Oeste 0 -- -- 37
2019-06-14 22:00:00 18.4 12 Oeste 26 Oeste 0 -- -- 33
2019-06-14 21:00:00 20.6 14 Oeste 25 Sudoeste 0 -- -- 26
2019-06-14 20:00:00 21.6 19 Oeste 32 Noroeste 0 -- -- 24
2019-06-14 19:00:00 22.2 23 Oeste 36 Oeste 0 -- -- 21
2019-06-14 18:00:00 22.9 18 Sudoeste 35 Oeste 0 -- -- 22
2019-06-14 17:00:00 23.5 14 Oeste 39 Oeste 0 -- -- 22
2019-06-14 16:00:00 23.1 17 Oeste 36 Oeste 0 -- -- 26
2019-06-14 15:00:00 22.6 17 Oeste 37 Oeste 0 -- -- 27
2019-06-14 14:00:00 22.2 20 Oeste 36 Oeste 0 -- -- 27
2019-06-14 13:00:00 21.4 17 Oeste 31 Sudoeste 0 -- -- 30
2019-06-14 12:00:00 20.2 21 Oeste 31 Oeste 0 -- -- 33
2019-06-14 11:00:00 18.8 15 Oeste 28 Oeste 0 -- -- 42
2019-06-14 10:00:00 18 11 Noroeste 19 Noroeste 0 -- -- 55
2019-06-14 09:00:00 18 9 Noroeste 13 Noroeste 0 -- -- 59
2019-06-14 08:00:00 15.7 6 Sur 9 Sur 0 -- -- 74
2019-06-14 07:00:00 15.7 7 Sudoeste 9 Sudoeste 0 -- -- 67
2019-06-14 06:00:00 16.9 7 Sudoeste 10 Oeste 0 -- -- 67
2019-06-14 05:00:00 18.1 8 Sudoeste 17 Oeste 0 -- -- 61
2019-06-14 04:00:00 18.6 11 Sudoeste 16 Sudoeste 0 -- -- 56
2019-06-14 03:00:00 18.9 7 Sudoeste 23 Sur 0 -- -- 54
2019-06-14 02:00:00 19.2 18 Sudoeste 26 Sudoeste 0 -- -- 53
2019-06-14 01:00:00 19.6 14 Sudoeste 27 Sudoeste 0 -- -- 51
2019-06-14 00:00:00 20.2 17 Sur 26 Sur 0 -- -- 48
2019-06-13 23:00:00 21.4 14 Sudoeste 29 Sudoeste 0 -- -- 37
2019-06-13 22:00:00 22.5 23 Sudoeste 37 Oeste 0 -- -- 35
2019-06-13 21:00:00 23.7 15 Sudoeste 30 Sudoeste 0 -- -- 37
2019-06-13 20:00:00 25.7 21 Sur 31 Sur 0 -- -- 33
2019-06-13 19:00:00 26.8 19 Sur 36 Sur 0 -- -- 29
2019-06-13 18:00:00 27 16 Sur 36 Sur 0 -- -- 28
2019-06-13 17:00:00 26.7 17 Sur 37 Sur 0 -- -- 27
2019-06-13 16:00:00 26.1 21 Sudoeste 40 Sudoeste 0 -- -- 29
2019-06-13 15:00:00 25.8 17 Sur 37 Sur 0 -- -- 30
2019-06-13 14:00:00 24.6 12 Oeste 29 Sudeste 0 -- -- 36
2019-06-13 13:00:00 23.4 3 Oeste 20 Sudoeste 0 -- -- 41
2019-06-13 12:00:00 21.6 7 Oeste 17 Oeste 0 -- -- 45
2019-06-13 11:00:00 18.3 5 Sudoeste 11 Sudoeste 0 -- -- 55
2019-06-13 10:00:00 17.9 3 Norte 8 Norte 0 -- -- 57
2019-06-13 09:00:00 16.5 0 Calma 6 Nordeste 0 -- -- 66
2019-06-13 08:00:00 15.1 4 Nordeste 6 Nordeste 0 -- -- 72
2019-06-13 07:00:00 13.9 3 Sur 8 Sur 0 -- -- 77
2019-06-13 06:00:00 14 8 Sur 12 Sur 0 -- -- 75
2019-06-13 05:00:00 14.3 6 Sur 11 Sudoeste 0 -- -- 74
2019-06-13 04:00:00 14.9 2 Sur 11 Sudeste 0 -- -- 61
2019-06-13 03:00:00 15 7 Sudeste 12 Sur 0 -- -- 62
2019-06-13 02:00:00 15.6 8 Sudoeste 10 Sudoeste 0 -- -- 64
2019-06-13 01:00:00 17 7 Sur 27 Sur 0 -- -- 55
2019-06-13 00:00:00 17.9 15 Sur 28 Sur 0 -- -- 53
2019-06-12 23:00:00 18.6 23 Sur 31 Sur 0 -- -- 50
2019-06-12 22:00:00 20.2 22 Sur 29 Sudoeste 0 -- -- 42
2019-06-12 21:00:00 23.2 19 Sudoeste 29 Sur 0 -- -- 31
2019-06-12 20:00:00 24.8 19 Sur 33 Sur 0 -- -- 26
2019-06-12 19:00:00 25.5 18 Sur 33 Sur 0 -- -- 24
2019-06-12 18:00:00 25.9 20 Sur 35 Sur 0 -- -- 24
2019-06-12 17:00:00 26 19 Sur 45 Sudoeste 0 -- -- 26
2019-06-12 16:00:00 25.9 18 Sur 34 Sur 0 -- -- 26
2019-06-12 15:00:00 25.5 17 Sur 34 Sur 0 -- -- 26
2019-06-12 14:00:00 24.6 19 Sudoeste 36 Sur 0 -- -- 29
2019-06-12 13:00:00 23.8 23 Sur 40 Sur 0 -- -- 32
2019-06-12 12:00:00 22.6 23 Sur 36 Sur 0 -- -- 40
2019-06-12 11:00:00 21.4 22 Sur 34 Sur 0 -- -- 45
2019-06-12 10:00:00 20.2 21 Sur 31 Sur 0 -- -- 48
2019-06-12 09:00:00 18.1 8 Sur 13 Sur 0 -- -- 56
2019-06-12 08:00:00 15.9 4 Nordeste 10 Este 0 -- -- 56
2019-06-12 07:00:00 14 7 Sudeste 16 Sur 0 -- -- 67
2019-06-12 06:00:00 14.4 12 Sur 24 Sur 0 -- -- 66
2019-06-12 05:00:00 15.1 4 Sur 11 Sur 0 -- -- 54
2019-06-12 04:00:00 16.2 5 Sudeste 7 Sudeste 0 -- -- 53
2019-06-12 03:00:00 16.9 0 Calma 5 Nordeste 0 -- -- 51
2019-06-12 02:00:00 17.2 4 Norte 9 Norte 0 -- -- 50
2019-06-12 01:00:00 17.8 5 Nordeste 20 Nordeste 0 -- -- 45
2019-06-12 00:00:00 19.2 3 Sudeste 21 Oeste 0 -- -- 40
2019-06-11 23:00:00 21.1 17 Oeste 33 Oeste 0 -- -- 36
2019-06-11 22:00:00 23.4 17 Noroeste 26 Oeste 0 -- -- 23
2019-06-11 21:00:00 25.3 15 Noroeste 32 Oeste 0 -- -- 15
2019-06-11 20:00:00 26.6 17 Oeste 37 Oeste 0 -- -- 14
2019-06-11 19:00:00 26.9 11 Noroeste 35 Norte 0 -- -- 17
2019-06-11 18:00:00 26.6 16 Noroeste 35 Noroeste 0 -- -- 19
2019-06-11 17:00:00 25.7 20 Noroeste 35 Noroeste 0 -- -- 21
2019-06-11 16:00:00 25.3 15 Noroeste 36 Noroeste 0 -- -- 21
2019-06-11 15:00:00 24.5 14 Oeste 28 Sudoeste 0 -- -- 21
2019-06-11 14:00:00 23.6 13 Oeste 30 Noroeste 0 -- -- 24
2019-06-11 13:00:00 22.7 15 Oeste 29 Noroeste 0 -- -- 24
2019-06-11 12:00:00 21.3 10 Oeste 20 Sudoeste 0 -- -- 33
2019-06-11 11:00:00 19.7 6 Noroeste 13 Noroeste 0 -- -- 39
2019-06-11 10:00:00 18.4 9 Noroeste 16 Noroeste 0 -- -- 43
2019-06-11 09:00:00 16.8 5 Noroeste 10 Noroeste 0 -- -- 45
2019-06-11 08:00:00 16 4 Este 9 Este 0 -- -- 48
2019-06-11 07:00:00 14.3 6 Este 10 Nordeste 0 -- -- 52
2019-06-11 06:00:00 14.3 4 Este 10 Este 0 -- -- 53
2019-06-11 05:00:00 14 0 Calma 6 Nordeste 0 -- -- 55
2019-06-11 04:00:00 15.3 5 Este 11 Nordeste 0 -- -- 52
2019-06-11 03:00:00 15.2 6 Este 10 Nordeste 0 -- -- 53
2019-06-11 02:00:00 16 8 Norte 11 Norte 0 -- -- 50
2019-06-11 01:00:00 17.1 6 Norte 12 Norte 0 -- -- 45
2019-06-11 00:00:00 18.3 4 Oeste 22 Noroeste 0 -- -- 37
2019-06-10 23:00:00 19.6 13 Oeste 30 Oeste 0 -- -- 34
2019-06-10 22:00:00 21.3 18 Oeste 33 Oeste 0 -- -- 29
2019-06-10 21:00:00 24.4 19 Oeste 32 Oeste 0 -- -- 20
2019-06-10 20:00:00 26.1 8 Noroeste 29 Oeste 0 -- -- 14
2019-06-10 19:00:00 26.1 17 Noroeste 29 Oeste 0 -- -- 14
2019-06-10 18:00:00 26.5 15 Noroeste 28 Noroeste 0 -- -- 13
2019-06-10 17:00:00 25.8 14 Norte 31 Noroeste 0 -- -- 13
2019-06-10 16:00:00 25.4 13 Oeste 35 Noroeste 0 -- -- 15
2019-06-10 15:00:00 24.3 15 Oeste 35 Oeste 0 -- -- 19
2019-06-10 14:00:00 23.4 11 Noroeste 27 Noroeste 0 -- -- 21
2019-06-10 13:00:00 22.4 14 Noroeste 29 Oeste 0 -- -- 26
2019-06-10 12:00:00 21.2 10 Noroeste 22 Noroeste 0 -- -- 31
2019-06-10 11:00:00 19.6 5 Noroeste 12 Oeste 0 -- -- 36
2019-06-10 10:00:00 17.8 11 Noroeste 17 Noroeste 0 -- -- 41
2019-06-10 09:00:00 16.8 7 Noroeste 13 Noroeste 0 -- -- 44
2019-06-10 08:00:00 16.3 0 Calma 5 Nordeste 0 -- -- 46
2019-06-10 07:00:00 14.6 3 Nordeste 8 Este 0 -- -- 49
2019-06-10 06:00:00 14.9 5 Este 9 Este 0 -- -- 45
2019-06-10 05:00:00 14.8 2 Norte 10 Nordeste 0 -- -- 41
2019-06-10 04:00:00 15.3 4 Sur 9 Sur 0 -- -- 42
2019-06-10 03:00:00 16.3 5 Sudeste 7 Este 0 -- -- 38
2019-06-10 02:00:00 16.2 6 Sudoeste 20 Sudoeste 0 -- -- 37
2019-06-10 01:00:00 17.5 14 Sudoeste 20 Sudoeste 0 -- -- 33
2019-06-10 00:00:00 17.4 12 Sudoeste 17 Sur 0 -- -- 32
2019-06-09 23:00:00 19.5 9 Sudoeste 31 Oeste 0 -- -- 23
2019-06-09 22:00:00 21.5 23 Oeste 41 Oeste 0 -- -- 16
2019-06-09 21:00:00 24.4 12 Oeste 30 Sudoeste 0 -- -- 15
2019-06-09 20:00:00 25.5 17 Oeste 29 Oeste 0 -- -- 15
2019-06-09 19:00:00 26.3 15 Oeste 36 Oeste 0 -- -- 15
2019-06-09 18:00:00 26.5 20 Oeste 35 Oeste 0 -- -- 17
2019-06-09 17:00:00 26.3 19 Noroeste 35 Oeste 0 -- -- 19
2019-06-09 16:00:00 26.1 15 Oeste 39 Sudoeste 0 -- -- 26
2019-06-09 15:00:00 25.5 15 Noroeste 30 Noroeste 0 -- -- 28
2019-06-09 14:00:00 24.1 13 Oeste 27 Oeste 0 -- -- 35
2019-06-09 13:00:00 23.9 5 Sur 18 Oeste 0 -- -- 32
2019-06-09 12:00:00 22.4 6 Oeste 15 Sudoeste 0 -- -- 44
2019-06-09 11:00:00 20.5 6 Sudoeste 13 Oeste 0 -- -- 52
2019-06-09 10:00:00 19 6 Oeste 12 Noroeste 0 -- -- 62
2019-06-09 09:00:00 17.1 0 Calma 3 Oeste 0 -- -- 66
2019-06-09 08:00:00 16.5 3 Nordeste 6 Este 0 -- -- 67
2019-06-09 07:00:00 16.2 5 Este 8 Este 0 -- -- 70
2019-06-09 06:00:00 16.4 3 Nordeste 9 Norte 0 -- -- 74
2019-06-09 05:00:00 16.8 5 Norte 9 Norte 0 -- -- 71
2019-06-09 04:00:00 17.2 3 Sur 12 Oeste 0 -- -- 68
2019-06-09 03:00:00 17.6 7 Sudoeste 18 Sudoeste 0 -- -- 68
2019-06-09 02:00:00 18.1 6 Oeste 23 Sudoeste 0 -- -- 65
2019-06-09 01:00:00 18.4 14 Sudoeste 22 Sudoeste 0 -- -- 64
2019-06-09 00:00:00 19 10 Sudoeste 19 Sur 0 -- -- 57
2019-06-08 23:00:00 19.6 14 Sudoeste 34 Sudoeste 0 -- -- 52
2019-06-08 22:00:00 20.2 23 Sur 33 Sur 0 -- -- 46
2019-06-08 21:00:00 22.2 24 Sur 39 Sur 0 -- -- 37
2019-06-08 20:00:00 23.8 29 Sur 49 Sur 0 -- -- 33
2019-06-08 19:00:00 24.5 35 Sur 50 Sur 0 -- -- 33
2019-06-08 18:00:00 25.5 33 Sur 45 Sur 0 -- -- 30
2019-06-08 17:00:00 26.9 30 Sur 45 Sur 0 -- -- 24
2019-06-08 16:00:00 27.7 26 Sur 43 Sur 0 -- -- 23
2019-06-08 15:00:00 27.2 24 Sur 37 Sur 0 -- -- 20
2019-06-08 14:00:00 27.3 25 Sur 46 Sur 0 -- -- 21
2019-06-08 13:00:00 26.4 35 Sur 46 Sudeste 0 -- -- 19
2019-06-08 12:00:00 26.2 5 Este 18 Sudeste 0 -- -- 19
2019-06-08 11:00:00 22.9 5 Oeste 10 Sudoeste 0 -- -- 20
2019-06-08 10:00:00 20.4 5 Noroeste 10 Nordeste 0 -- -- 22
2019-06-08 09:00:00 17.8 4 Nordeste 9 Este 0 -- -- 26
2019-06-08 08:00:00 15 3 Sudeste 18 Sur 0 -- -- 28
2019-06-08 07:00:00 13.3 12 Sur 15 Sudeste 0 -- -- 30
2019-06-08 06:00:00 13.5 6 Sur 8 Sur 0 -- -- 28
2019-06-08 05:00:00 14.4 4 Sur 6 Sur 0 -- -- 26
2019-06-08 04:00:00 15.3 0 Calma 3 Nordeste 0 -- -- 25
2019-06-08 03:00:00 16.1 0 Calma 4 Nordeste 0 -- -- 24
2019-06-08 02:00:00 17 3 Nordeste 9 Noroeste 0 -- -- 22
2019-06-08 01:00:00 19 4 Noroeste 6 Noroeste 0 -- -- 18
2019-06-08 00:00:00 19.1 5 Nordeste 6 Oeste 0 -- -- 18
2019-06-07 23:00:00 19.7 3 Oeste 8 Oeste 0 -- -- 17
2019-06-07 22:00:00 21.1 5 Oeste 15 Noroeste 0 -- -- 15
2019-06-07 21:00:00 23.5 12 Noroeste 21 Noroeste 0 -- -- 13
2019-06-07 20:00:00 24.5 12 Noroeste 24 Noroeste 0 -- -- 14
2019-06-07 19:00:00 24.9 12 Noroeste 26 Noroeste 0 -- -- 16
2019-06-07 18:00:00 25.1 13 Oeste 28 Noroeste 0 -- -- 18
2019-06-07 17:00:00 24.1 12 Noroeste 27 Oeste 0 -- -- 20
2019-06-07 16:00:00 23 12 Noroeste 24 Oeste 0 -- -- 24
2019-06-07 15:00:00 21.9 12 Oeste 23 Oeste 0 -- -- 34
2019-06-07 14:00:00 20.7 6 Oeste 18 Noroeste 0 -- -- 42
2019-06-07 13:00:00 19.3 9 Oeste 18 Oeste 0 -- -- 47
2019-06-07 12:00:00 17.7 6 Norte 14 Norte 0 -- -- 62
2019-06-07 11:00:00 15.6 7 Norte 13 Norte 0 -- -- 68
2019-06-07 10:00:00 14.8 4 Noroeste 12 Noroeste 0 -- -- 70
2019-06-07 09:00:00 15.2 0 Calma 6 Sur 0 -- -- 65
2019-06-07 08:00:00 14.5 5 Sudoeste 11 Sur 0 -- -- 66
2019-06-07 07:00:00 13.7 4 Sudoeste 15 Sudoeste 0 -- -- 67
2019-06-07 06:00:00 13.7 9 Sudoeste 15 Sudoeste 0 -- -- 67
2019-06-07 05:00:00 12.7 10 Sur 13 Sur 0 -- -- 58
2019-06-07 04:00:00 13.1 10 Sur 17 Sudoeste 0 -- -- 54
2019-06-07 03:00:00 13.8 5 Sur 21 Sudoeste 0 -- -- 49
2019-06-07 02:00:00 14.3 14 Sudoeste 21 Sudoeste 0 -- -- 48
2019-06-07 01:00:00 14.8 6 Norte 18 Oeste 0 -- -- 40
2019-06-07 00:00:00 16.4 10 Oeste 28 Oeste 0 -- -- 32
2019-06-06 23:00:00 17.8 11 Oeste 19 Oeste 0 -- -- 21
2019-06-06 22:00:00 19.5 12 Oeste 30 Oeste 0 -- -- 14
2019-06-06 21:00:00 22 15 Oeste 35 Oeste 0 -- -- 14
2019-06-06 20:00:00 24.1 17 Oeste 40 Oeste 0 -- -- 16
2019-06-06 19:00:00 25.5 23 Noroeste 36 Oeste 0 -- -- 15
2019-06-06 18:00:00 26.9 18 Oeste 32 Sudoeste 0 -- -- 13
2019-06-06 17:00:00 27 15 Noroeste 41 Sudoeste 0 -- -- 13
2019-06-06 16:00:00 26.6 13 Sudoeste 32 Oeste 0 -- -- 11
2019-06-06 15:00:00 26.1 17 Sudoeste 34 Sur 0 -- -- 9
2019-06-06 14:00:00 24.9 9 Sudoeste 22 Noroeste 0 -- -- 16
2019-06-06 13:00:00 22.9 12 Sudoeste 21 Sudoeste 0 -- -- 18
2019-06-06 12:00:00 21.3 5 Noroeste 12 Oeste 0 -- -- 24
2019-06-06 11:00:00 19.4 5 Noroeste 9 Norte 0 -- -- 33
2019-06-06 10:00:00 17.8 3 Sur 7 Norte 0 -- -- 36
2019-06-06 09:00:00 15.8 4 Este 7 Este 0 -- -- 41
2019-06-06 08:00:00 13.5 3 Noroeste 7 Oeste 0 -- -- 51
2019-06-06 07:00:00 12.8 3 Oeste 6 Oeste 0 -- -- 52
2019-06-06 06:00:00 13.1 2 Noroeste 9 Noroeste 0 -- -- 52
2019-06-06 05:00:00 13.9 4 Este 5 Nordeste 0 -- -- 51
2019-06-06 04:00:00 13.2 4 Sur 13 Sur 0 -- -- 53
2019-06-06 03:00:00 13.7 9 Sur 12 Sur 0 -- -- 51
2019-06-06 02:00:00 15 6 Sur 13 Oeste 0 -- -- 46
2019-06-06 01:00:00 16.1 10 Oeste 23 Oeste 0 -- -- 44
2019-06-06 00:00:00 16.7 14 Oeste 20 Sudoeste 0 -- -- 41
2019-06-05 23:00:00 18.2 12 Oeste 21 Oeste 0 -- -- 22
2019-06-05 22:00:00 19.5 8 Noroeste 21 Noroeste 0 -- -- 18
2019-06-05 21:00:00 21.3 13 Noroeste 27 Noroeste 0 -- -- 17
2019-06-05 20:00:00 22.2 13 Noroeste 28 Noroeste 0 -- -- 16
2019-06-05 19:00:00 22.1 15 Noroeste 32 Oeste 0 -- -- 16
2019-06-05 18:00:00 22.6 15 Noroeste 33 Oeste 0 -- -- 16
2019-06-05 17:00:00 22.8 17 Noroeste 36 Noroeste 0 -- -- 18
2019-06-05 16:00:00 21.4 17 Noroeste 33 Oeste 0 -- -- 22
2019-06-05 15:00:00 20.6 15 Noroeste 34 Noroeste 0 -- -- 23
2019-06-05 14:00:00 19.4 20 Noroeste 32 Noroeste 0 -- -- 27
2019-06-05 13:00:00 18.7 15 Noroeste 30 Noroeste 0 -- -- 28
2019-06-05 12:00:00 17.6 15 Noroeste 28 Noroeste 0 -- -- 31
2019-06-05 11:00:00 16 15 Noroeste 29 Noroeste 0 -- -- 37
2019-06-05 10:00:00 15.4 17 Noroeste 33 Noroeste 0 -- -- 38
2019-06-05 09:00:00 14.7 14 Noroeste 31 Noroeste 0 -- -- 40
2019-06-05 08:00:00 13.9 11 Oeste 27 Noroeste 0 -- -- 40
2019-06-05 07:00:00 13.9 13 Noroeste 32 Noroeste 0 -- -- 39
2019-06-05 06:00:00 15.1 20 Noroeste 35 Oeste 0 -- -- 44
2019-06-05 05:00:00 17.1 16 Oeste 34 Oeste 0 -- -- 49
2019-06-05 04:00:00 17.5 19 Oeste 34 Oeste 0 -- -- 58
2019-06-05 03:00:00 18.2 20 Oeste 30 Oeste 0 -- -- 58
2019-06-05 02:00:00 18.6 11 Sudoeste 24 Sudoeste 0 -- -- 57
2019-06-05 01:00:00 18.7 12 Sudoeste 27 Sudoeste 0 -- -- 54
2019-06-05 00:00:00 19.6 19 Sudoeste 30 Sudoeste 0 -- -- 51
2019-06-04 23:00:00 21.2 22 Sudoeste 33 Oeste 0 -- -- 40
2019-06-04 22:00:00 23 17 Sudoeste 31 Oeste 0 -- -- 35
2019-06-04 21:00:00 25.2 21 Oeste 37 Sudoeste 0 -- -- 28
2019-06-04 20:00:00 28 24 Oeste 38 Oeste 0 -- -- 24
2019-06-04 19:00:00 29.2 23 Oeste 42 Oeste 0 -- -- 21
2019-06-04 18:00:00 30.7 25 Oeste 41 Oeste 0 -- -- 18
2019-06-04 17:00:00 30.9 23 Oeste 40 Sudoeste 0 -- -- 14
2019-06-04 16:00:00 30.8 16 Oeste 35 Sudoeste 0 -- -- 16
2019-06-04 15:00:00 30.5 20 Oeste 33 Oeste 0 -- -- 14
2019-06-04 14:00:00 29.1 16 Oeste 31 Noroeste 0 -- -- 13
2019-06-04 13:00:00 28.3 13 Noroeste 27 Noroeste 0 -- -- 14
2019-06-04 12:00:00 27.9 11 Oeste 19 Sudoeste 0 -- -- 11
2019-06-04 11:00:00 25.8 4 Nordeste 13 Norte 0 -- -- 13
2019-06-04 10:00:00 23.1 4 Nordeste 7 Nordeste 0 -- -- 20
2019-06-04 09:00:00 20.4 3 Nordeste 5 Nordeste 0 -- -- 27
2019-06-04 08:00:00 17.6 4 Nordeste 14 Nordeste 0 -- -- 33
2019-06-04 07:00:00 16.3 8 Este 13 Este 0 -- -- 36
2019-06-04 06:00:00 17.1 5 Este 14 Sudeste 0 -- -- 26
2019-06-04 05:00:00 17.5 3 Sur 6 Sudoeste 0 -- -- 27
2019-06-04 04:00:00 19.3 5 Nordeste 9 Nordeste 0 -- -- 22
2019-06-04 03:00:00 19.9 4 Este 7 Sudeste 0 -- -- 19
2019-06-04 02:00:00 20.3 0 Calma 21 Sur 0 -- -- 19
2019-06-04 01:00:00 20.1 16 Sur 23 Sur 0 -- -- 20
2019-06-04 00:00:00 21.7 18 Sur 23 Sur 0 -- -- 17
2019-06-03 23:00:00 23.5 15 Sur 26 Sur 0 -- -- 14
2019-06-03 22:00:00 24.8 22 Sur 30 Sur 0 -- -- 12
2019-06-03 21:00:00 28 17 Sur 28 Sudoeste 0 -- -- 8
2019-06-03 20:00:00 30.8 22 Sudoeste 32 Sudoeste 0 -- -- 5
2019-06-03 19:00:00 32.9 19 Sudoeste 29 Sudoeste 0 -- -- 3
2019-06-03 18:00:00 33.4 19 Sudoeste 29 Sudoeste 0 -- -- 2
2019-06-03 17:00:00 33.3 17 Sudoeste 32 Sudoeste 0 -- -- 5
2019-06-03 16:00:00 32.7 21 Sudoeste 35 Sudoeste 0 -- -- 7
2019-06-03 15:00:00 33 15 Oeste 27 Sudoeste 0 -- -- 7
2019-06-03 14:00:00 32.6 9 Sur 18 Oeste 0 -- -- 7
2019-06-03 13:00:00 30.7 9 Sudoeste 15 Sudoeste 0 -- -- 9
2019-06-03 12:00:00 29.4 7 Sur 13 Sudoeste 0 -- -- 10
2019-06-03 11:00:00 26.7 4 Este 9 Nordeste 0 -- -- 17
2019-06-03 10:00:00 23.3 5 Este 9 Nordeste 0 -- -- 23
2019-06-03 09:00:00 20.8 4 Este 12 Sudeste 0 -- -- 25
2019-06-03 08:00:00 17.9 5 Sur 12 Sur 0 -- -- 27
2019-06-03 07:00:00 17.8 5 Este 10 Nordeste 0 -- -- 25
2019-06-03 06:00:00 17.3 4 Este 13 Este 0 -- -- 25
2019-06-03 05:00:00 17.1 10 Este 13 Este 0 -- -- 26
2019-06-03 04:00:00 17.3 6 Este 9 Este 0 -- -- 26
2019-06-03 03:00:00 17.9 4 Noroeste 10 Noroeste 0 -- -- 24
2019-06-03 02:00:00 18.5 2 Sudoeste 17 Sur 0 -- -- 24
2019-06-03 01:00:00 19.3 8 Sur 22 Sur 0 -- -- 22
2019-06-03 00:00:00 19.9 16 Sur 29 Sur 0 -- -- 20
2019-06-02 23:00:00 21.1 23 Sur 35 Sur 0 -- -- 19
2019-06-02 22:00:00 22.8 26 Sur 38 Sur 0 -- -- 17
2019-06-02 21:00:00 26 23 Sur 32 Sudoeste 0 -- -- 13
2019-06-02 20:00:00 28.9 18 Sudoeste 31 Sudoeste 0 -- -- 11
2019-06-02 19:00:00 29.9 22 Sudoeste 35 Sur 0 -- -- 10
2019-06-02 18:00:00 30.6 23 Sudoeste 35 Sudoeste 0 -- -- 10
2019-06-02 17:00:00 32 22 Sudoeste 33 Sur 0 -- -- 9
2019-06-02 16:00:00 31.2 13 Sudoeste 25 Sur 0 -- -- 8
2019-06-02 15:00:00 30.7 13 Oeste 26 Sur 0 -- -- 9
2019-06-02 14:00:00 29.8 6 Sudoeste 23 Sudoeste 0 -- -- 8
2019-06-02 13:00:00 27.8 6 Norte 14 Sudoeste 0 -- -- 12
2019-06-02 12:00:00 26.3 8 Sudoeste 19 Sudoeste 0 -- -- 15
2019-06-02 11:00:00 24.2 5 Oeste 9 Oeste 0 -- -- 20
2019-06-02 10:00:00 22.8 4 Norte 7 Norte 0 -- -- 25
2019-06-02 09:00:00 21 3 Nordeste 8 Sur 0 -- -- 28
2019-06-02 08:00:00 18.7 7 Sudeste 15 Sudeste 0 -- -- 31
2019-06-02 07:00:00 16.9 9 Sudeste 13 Sur 0 -- -- 34
2019-06-02 06:00:00 16.1 10 Sudeste 14 Sur 0 -- -- 37
2019-06-02 05:00:00 16.2 12 Sur 20 Sur 0 -- -- 38
2019-06-02 04:00:00 15.9 8 Sur 22 Sur 0 -- -- 39
2019-06-02 03:00:00 16.4 11 Sur 19 Sur 0 -- -- 35
2019-06-02 02:00:00 17.9 14 Sur 22 Sur 0 -- -- 30
2019-06-02 01:00:00 19.5 17 Sur 26 Sur 0 -- -- 26
2019-06-02 00:00:00 20.2 17 Sur 31 Sur 0 -- -- 24
2019-06-01 23:00:00 20.9 22 Sur 34 Sur 0 -- -- 23
2019-06-01 22:00:00 21.9 18 Sur 33 Sur 0 -- -- 21
2019-06-01 21:00:00 24.6 22 Sur 37 Sur 0 -- -- 20
2019-06-01 20:00:00 26.5 24 Sur 38 Sur 0 -- -- 18
2019-06-01 19:00:00 27.9 24 Sur 39 Sur 0 -- -- 16
2019-06-01 18:00:00 28.8 26 Sur 39 Sudoeste 0 -- -- 15
2019-06-01 17:00:00 29.5 24 Sur 35 Sur 0 -- -- 14
2019-06-01 16:00:00 29.8 20 Sur 35 Sudoeste 0 -- -- 13
2019-06-01 15:00:00 29.6 15 Sur 28 Sudoeste 0 -- -- 14
2019-06-01 14:00:00 28.5 13 Sur 30 Sur 0 -- -- 16
2019-06-01 13:00:00 27.5 13 Sur 23 Sudeste 0 -- -- 18
2019-06-01 12:00:00 25.7 9 Sur 20 Sudoeste 0 -- -- 22
2019-06-01 11:00:00 24 7 Sur 18 Sudoeste 0 -- -- 24
2019-06-01 10:00:00 22.2 5 Sur 13 Sur 0 -- -- 26
2019-06-01 09:00:00 19 7 Sur 17 Sur 0 -- -- 42
2019-06-01 08:00:00 16.1 11 Sur 20 Sur 0 -- -- 54
2019-06-01 07:00:00 14.9 14 Sur 19 Sur 0 -- -- 57
2019-06-01 06:00:00 15.5 14 Sur 24 Sur 0 -- -- 54
2019-06-01 05:00:00 16 13 Sur 18 Sur 0 -- -- 50
2019-06-01 04:00:00 16.8 13 Sur 18 Sur 0 -- -- 47
2019-06-01 03:00:00 17.5 13 Sur 19 Sur 0 -- -- 45
2019-06-01 02:00:00 18.8 12 Sur 17 Sur 0 -- -- 33
2019-06-01 01:00:00 20.2 12 Sudeste 20 Sudeste 0 -- -- 30
2019-06-01 00:00:00 21.3 15 Sudeste 28 Sur 0 -- -- 27
2019-05-31 23:00:00 21.8 20 Sur 32 Sur 0 -- -- 25
2019-05-31 22:00:00 23 22 Sur 48 Sur 0 -- -- 21
2019-05-31 21:00:00 24.4 32 Sur 48 Sur 0 -- -- 19
2019-05-31 20:00:00 26.1 33 Sur 53 Sur 0 -- -- 17
2019-05-31 19:00:00 27.4 33 Sur 49 Sur 0 -- -- 16
2019-05-31 18:00:00 29.4 26 Sur 41 Sur 0 -- -- 13
2019-05-31 17:00:00 29.6 26 Sur 42 Sudoeste 0 -- -- 15
2019-05-31 16:00:00 29.7 27 Sur 41 Sur 0 -- -- 16
2019-05-31 15:00:00 28.8 30 Sur 40 Sur 0 -- -- 16
2019-05-31 14:00:00 28.6 13 Sudoeste 30 Sudoeste 0 -- -- 16
2019-05-31 13:00:00 26.7 9 Norte 22 Sudoeste 0 -- -- 18
2019-05-31 12:00:00 25.7 8 Sudoeste 21 Sur 0 -- -- 19
2019-05-31 11:00:00 23.9 8 Sudeste 18 Sur 0 -- -- 22
2019-05-31 10:00:00 21.4 8 Sur 14 Sur 0 -- -- 27
2019-05-31 09:00:00 18.8 11 Sur 16 Sudeste 0 -- -- 38
2019-05-31 08:00:00 17.7 9 Sudeste 13 Sudeste 0 -- -- 32
2019-05-31 07:00:00 16.3 4 Este 10 Sudeste 0 -- -- 33
2019-05-31 06:00:00 16.9 4 Sudeste 12 Sur 0 -- -- 32
2019-05-31 05:00:00 17.1 3 Sur 15 Este 0 -- -- 35
2019-05-31 04:00:00 17.8 7 Sudeste 12 Este 0 -- -- 34
2019-05-31 03:00:00 18 4 Sudeste 13 Este 0 -- -- 37
2019-05-31 02:00:00 18.3 8 Sudeste 15 Sudeste 0 -- -- 35
2019-05-31 01:00:00 18.2 11 Sudeste 21 Sudeste 0 -- -- 31
2019-05-31 00:00:00 18.8 16 Sur 29 Sur 0 -- -- 31
2019-05-30 23:00:00 19 24 Sur 41 Sur 0 -- -- 33
2019-05-30 22:00:00 19.7 27 Sur 43 Sur 0 -- -- 33
2019-05-30 21:00:00 21.2 28 Sur 45 Sur 0 -- -- 33
2019-05-30 20:00:00 23.3 32 Sur 43 Sur 0 -- -- 28
2019-05-30 19:00:00 25.2 28 Sur 44 Sur 0 -- -- 25
2019-05-30 18:00:00 26.5 28 Sur 41 Sur 0 -- -- 22
2019-05-30 17:00:00 26.6 28 Sur 42 Sur 0 -- -- 23
2019-05-30 16:00:00 27.1 27 Sur 39 Sur 0 -- -- 24
2019-05-30 15:00:00 27.2 13 Sur 28 Sur 0 -- -- 25
2019-05-30 14:00:00 25.9 17 Sur 34 Sudoeste 0 -- -- 27
2019-05-30 13:00:00 24.7 24 Sur 37 Sur 0 -- -- 28
2019-05-30 12:00:00 24.2 20 Sur 29 Sur 0 -- -- 30
2019-05-30 11:00:00 23.2 7 Sudoeste 15 Sudeste 0 -- -- 30
2019-05-30 10:00:00 21.6 9 Nordeste 18 Nordeste 0 -- -- 38
2019-05-30 09:00:00 19.7 4 Nordeste 13 Este 0 -- -- 43
2019-05-30 08:00:00 16.9 7 Sudeste 24 Sudeste 0 -- -- 53
2019-05-30 07:00:00 15.9 18 Sudeste 27 Sudeste 0 -- -- 57
2019-05-30 06:00:00 16.1 13 Sudeste 32 Sudeste 0 -- -- 57
2019-05-30 05:00:00 16.8 15 Sudeste 24 Sudeste 0 -- -- 51
2019-05-30 04:00:00 16.6 10 Sudeste 17 Sur 0 -- -- 50
2019-05-30 03:00:00 16.2 13 Sudeste 19 Sur 0 -- -- 50
2019-05-30 02:00:00 16.2 13 Sur 23 Sur 0 -- -- 50
2019-05-30 01:00:00 16.9 17 Sur 29 Sur 0 -- -- 48
2019-05-30 00:00:00 17.9 19 Sur 30 Sur 0 -- -- 45
2019-05-29 23:00:00 19.1 22 Sur 32 Sur 0 -- -- 42
2019-05-29 22:00:00 21 22 Sur 33 Sur 0 -- -- 33
2019-05-29 21:00:00 24.7 20 Sur 28 Sur 0 -- -- 26
2019-05-29 20:00:00 27.1 18 Sur 30 Sur 0 -- -- 21
2019-05-29 19:00:00 28.7 21 Sur 30 Sudoeste 0 -- -- 19
2019-05-29 18:00:00 29.6 15 Sudoeste 26 Sudoeste 0 -- -- 17
2019-05-29 17:00:00 29.8 12 Sudoeste 30 Oeste 0 -- -- 18
2019-05-29 16:00:00 29 16 Sudoeste 37 Sudoeste 0 -- -- 19
2019-05-29 15:00:00 28.7 12 Sur 28 Sudoeste 0 -- -- 20
2019-05-29 14:00:00 28 16 Sur 26 Sur 0 -- -- 24
2019-05-29 13:00:00 27.1 9 Sur 23 Sudoeste 0 -- -- 28
2019-05-29 12:00:00 26.3 18 Sur 27 Sur 0 -- -- 30
2019-05-29 11:00:00 24.8 5 Sudeste 15 Sudoeste 0 -- -- 36
2019-05-29 10:00:00 22.2 6 Nordeste 11 Nordeste 0 -- -- 40
2019-05-29 09:00:00 20.4 5 Nordeste 9 Nordeste 0 -- -- 47
2019-05-29 08:00:00 17.6 4 Nordeste 9 Sur 0 -- -- 58
2019-05-29 07:00:00 16.8 3 Sudeste 18 Sur 0 -- -- 59
2019-05-29 06:00:00 17.3 13 Sur 22 Sur 0 -- -- 56
2019-05-29 05:00:00 18.2 14 Sur 19 Sur 0 -- -- 43
2019-05-29 04:00:00 21.9 4 Nordeste 5 Norte 0 -- -- 25
2019-05-29 03:00:00 22.6 5 Nordeste 8 Norte 0 -- -- 24
2019-05-29 02:00:00 22.7 5 Norte 14 Nordeste 0 -- -- 24
2019-05-29 01:00:00 23.3 7 Nordeste 13 Noroeste 0 -- -- 27
2019-05-29 00:00:00 24.9 10 Noroeste 21 Oeste 0 -- -- 24
2019-05-28 23:00:00 26.6 13 Noroeste 23 Oeste 0 -- -- 21
2019-05-28 22:00:00 28.8 4 Oeste 12 Oeste 0 -- -- 17
2019-05-28 21:00:00 31.2 7 Noroeste 22 Noroeste 0 -- -- 14
2019-05-28 20:00:00 32.1 14 Noroeste 23 Noroeste 0 -- -- 12
2019-05-28 19:00:00 32.6 12 Noroeste 27 Noroeste 0 -- -- 11
2019-05-28 18:00:00 32.6 15 Noroeste 32 Noroeste 0 -- -- 11
2019-05-28 17:00:00 32.7 15 Noroeste 30 Noroeste 0 -- -- 10
2019-05-28 16:00:00 32.5 12 Noroeste 27 Noroeste 0 -- -- 11
2019-05-28 15:00:00 31.9 7 Oeste 28 Oeste 0 -- -- 11
2019-05-28 14:00:00 31 9 Noroeste 26 Oeste 0 -- -- 14
2019-05-28 13:00:00 30.7 10 Noroeste 21 Noroeste 0 -- -- 15
2019-05-28 12:00:00 29.4 6 Noroeste 14 Oeste 0 -- -- 20
2019-05-28 11:00:00 27.4 3 Norte 10 Nordeste 0 -- -- 24
2019-05-28 10:00:00 24.5 4 Nordeste 8 Nordeste 0 -- -- 28
2019-05-28 09:00:00 21.5 3 Nordeste 9 Nordeste 0 -- -- 34
2019-05-28 08:00:00 19.9 4 Este 10 Este 0 -- -- 35
2019-05-28 07:00:00 18.8 7 Este 12 Nordeste 0 -- -- 39
2019-05-28 06:00:00 20.3 5 Este 10 Este 0 -- -- 31
2019-05-28 05:00:00 20.6 4 Sudeste 12 Sur 0 -- -- 30
2019-05-28 04:00:00 20.2 8 Sur 13 Sur 0 -- -- 31
2019-05-28 03:00:00 22.3 4 Sudeste 9 Sudoeste 0 -- -- 27
2019-05-28 02:00:00 22.6 0 Calma 8 Sur 0 -- -- 25
2019-05-28 01:00:00 23.4 4 Sudoeste 15 Sudoeste 0 -- -- 24
2019-05-28 00:00:00 23.8 5 Sur 19 Sudoeste 0 -- -- 25